createdAt,value
2023-04-26T00:01:32.066Z,12.69
2023-04-26T00:04:05.487Z,12.70
2023-04-26T00:09:20.700Z,12.68
2023-04-26T00:12:03.474Z,12.64
2023-04-26T00:14:34.320Z,12.38
2023-04-26T00:20:18.429Z,12.36
2023-04-26T00:22:45.287Z,12.34
2023-04-26T00:25:12.891Z,12.38
2023-04-26T00:27:39.929Z,12.37
2023-04-26T00:30:07.390Z,12.33
2023-04-26T00:32:35.924Z,12.18
2023-04-26T00:35:19.286Z,12.30
2023-04-26T00:37:52.523Z,12.28
2023-04-26T00:40:20.956Z,12.15
2023-04-26T00:42:50.124Z,12.41
2023-04-26T00:45:20.980Z,12.30
2023-04-26T00:47:55.776Z,12.34
2023-04-26T00:50:25.488Z,12.37
2023-04-26T00:52:52.618Z,12.21
2023-04-26T00:55:22.244Z,12.14
2023-04-26T00:57:55.706Z,12.05
2023-04-26T01:00:23.184Z,12.02
2023-04-26T01:02:50.443Z,12.04
2023-04-26T01:05:18.174Z,11.93
2023-04-26T01:07:46.375Z,11.83
2023-04-26T01:10:13.418Z,11.90
2023-04-26T01:12:43.995Z,11.95
2023-04-26T01:15:33.609Z,11.92
2023-04-26T01:18:09.043Z,11.90
2023-04-26T01:20:43.487Z,11.85
2023-04-26T01:23:25.727Z,11.92
2023-04-26T01:26:29.849Z,11.81
2023-04-26T01:28:56.815Z,11.78
2023-04-26T01:31:31.200Z,11.78
2023-04-26T01:33:58.071Z,11.94
2023-04-26T01:36:42.417Z,11.96
2023-04-26T01:39:42.323Z,11.99
2023-04-26T01:42:09.453Z,12.05
2023-04-26T01:44:36.598Z,12.12
2023-04-26T01:47:04.278Z,11.98
2023-04-26T01:49:34.326Z,11.96
2023-04-26T01:52:02.165Z,11.86
2023-04-26T01:54:41.175Z,11.97
2023-04-26T01:57:08.185Z,11.97
2023-04-26T01:59:35.254Z,12.04
2023-04-26T02:02:02.364Z,12.02
2023-04-26T02:04:50.316Z,12.03
2023-04-26T02:07:20.354Z,12.04
2023-04-26T02:09:47.204Z,12.08
2023-04-26T02:12:14.398Z,12.01
2023-04-26T02:14:49.434Z,11.93
2023-04-26T02:17:36.250Z,11.98
2023-04-26T02:20:04.164Z,12.01
2023-04-26T02:22:32.064Z,12.05
2023-04-26T02:24:58.968Z,11.92
2023-04-26T02:27:25.832Z,11.90
2023-04-26T02:30:04.750Z,11.96
2023-04-26T02:32:32.081Z,11.99
2023-04-26T02:35:06.211Z,11.82
2023-04-26T02:37:34.276Z,11.68
2023-04-26T02:42:48.173Z,11.88
2023-04-26T02:45:15.342Z,11.90
2023-04-26T02:47:44.985Z,11.85
2023-04-26T02:50:12.199Z,11.85
2023-04-26T02:52:42.179Z,11.68
2023-04-26T02:55:09.272Z,11.68
2023-04-26T02:57:36.313Z,11.68
2023-04-26T03:00:15.364Z,11.72
2023-04-26T03:02:49.578Z,11.76
2023-04-26T03:05:26.064Z,11.68
2023-04-26T03:08:08.391Z,11.58
2023-04-26T03:10:55.121Z,11.57
2023-04-26T03:13:25.874Z,11.40
2023-04-26T03:15:53.933Z,11.44
2023-04-26T03:18:20.912Z,11.52
2023-04-26T03:20:51.334Z,11.63
2023-04-26T03:23:18.533Z,11.57
2023-04-26T03:25:46.379Z,11.24
2023-04-26T03:28:15.288Z,11.31
2023-04-26T03:30:42.109Z,11.18
2023-04-26T03:33:26.961Z,11.26
2023-04-26T03:35:53.873Z,11.25
2023-04-26T03:38:20.769Z,11.09
2023-04-26T03:40:47.585Z,11.04
2023-04-26T03:43:16.059Z,10.93
2023-04-26T03:45:42.950Z,10.92
2023-04-26T03:48:12.652Z,10.91
2023-04-26T03:50:40.401Z,10.98
2023-04-26T03:53:12.629Z,11.10
2023-04-26T03:55:40.217Z,10.92
2023-04-26T03:58:08.398Z,10.91
2023-04-26T04:00:37.992Z,10.95
2023-04-26T04:03:07.466Z,11.01
2023-04-26T04:05:39.218Z,10.91
2023-04-26T04:08:06.716Z,10.94
2023-04-26T04:10:36.490Z,10.93
2023-04-26T04:13:06.092Z,11.05
2023-04-26T04:15:33.048Z,11.26
2023-04-26T04:18:00.376Z,11.02
2023-04-26T04:20:32.995Z,11.10
2023-04-26T04:23:04.719Z,11.07
2023-04-26T04:25:37.963Z,11.00
2023-04-26T04:28:07.274Z,11.06
2023-04-26T04:30:40.847Z,11.04
2023-04-26T04:33:09.496Z,11.12
2023-04-26T04:35:54.263Z,11.16
2023-04-26T04:38:27.164Z,11.28
2023-04-26T04:40:54.032Z,11.21
2023-04-26T04:43:27.294Z,10.94
2023-04-26T04:45:54.259Z,10.78
2023-04-26T04:48:21.922Z,10.83
2023-04-26T04:50:53.714Z,10.80
2023-04-26T04:53:24.492Z,11.14
2023-04-26T04:55:55.682Z,10.73
2023-04-26T04:58:26.262Z,10.79
2023-04-26T05:01:03.178Z,11.06
2023-04-26T05:03:35.362Z,11.13
2023-04-26T05:06:08.891Z,11.21
2023-04-26T05:08:41.782Z,11.06
2023-04-26T05:11:08.595Z,11.14
2023-04-26T05:13:35.711Z,11.27
2023-04-26T05:16:03.084Z,11.40
2023-04-26T05:18:30.077Z,11.42
2023-04-26T05:20:58.405Z,11.30
2023-04-26T05:23:25.505Z,11.26
2023-04-26T05:25:55.306Z,11.13
2023-04-26T05:28:29.313Z,11.19
2023-04-26T05:31:04.720Z,11.19
2023-04-26T05:33:33.958Z,11.17
2023-04-26T05:36:04.561Z,11.46
2023-04-26T05:38:33.918Z,11.67
2023-04-26T05:41:06.843Z,11.67
2023-04-26T05:43:39.281Z,11.60
2023-04-26T05:46:12.561Z,11.82
2023-04-26T05:48:45.527Z,11.86
2023-04-26T05:51:22.135Z,12.08
2023-04-26T05:54:07.076Z,12.34
2023-04-26T05:56:37.690Z,12.37
2023-04-26T05:59:06.605Z,12.50
2023-04-26T06:01:33.527Z,12.49
2023-04-26T06:04:04.043Z,12.54
2023-04-26T06:06:46.551Z,12.62
2023-04-26T06:09:13.434Z,12.72
2023-04-26T06:11:43.201Z,12.80
2023-04-26T06:14:17.018Z,12.72
2023-04-26T06:17:02.126Z,12.90
2023-04-26T06:19:52.265Z,13.02
2023-04-26T06:22:20.424Z,13.14
2023-04-26T06:24:49.838Z,13.21
2023-04-26T06:27:16.772Z,13.33
2023-04-26T06:30:08.419Z,13.27
2023-04-26T06:32:44.747Z,13.44
2023-04-26T06:35:17.644Z,13.56
2023-04-26T06:37:56.331Z,13.62
2023-04-26T06:40:38.630Z,13.59
2023-04-26T06:43:05.537Z,13.66
2023-04-26T06:45:32.708Z,13.70
2023-04-26T06:48:12.192Z,13.94
2023-04-26T06:50:55.816Z,14.07
2023-04-26T06:53:25.247Z,14.26
2023-04-26T06:55:58.895Z,14.22
2023-04-26T06:58:25.756Z,14.49
2023-04-26T07:01:06.589Z,14.56
2023-04-26T07:03:42.818Z,14.48
2023-04-26T07:06:10.935Z,14.59
2023-04-26T07:08:41.149Z,14.56
2023-04-26T07:11:14.567Z,14.63
2023-04-26T07:13:41.702Z,14.97
2023-04-26T07:16:08.701Z,15.10
2023-04-26T07:18:35.650Z,15.03
2023-04-26T07:21:05.443Z,15.07
2023-04-26T07:23:43.467Z,15.41
2023-04-26T07:31:25.811Z,15.64
2023-04-26T07:33:56.129Z,15.40
2023-04-26T07:36:24.542Z,15.46
2023-04-26T07:38:55.357Z,15.34
2023-04-26T07:41:24.940Z,15.27
2023-04-26T07:43:54.807Z,15.25
2023-04-26T07:46:36.829Z,15.31
2023-04-26T07:49:04.850Z,15.37
2023-04-26T07:51:36.963Z,15.39
2023-04-26T07:54:12.659Z,15.53
2023-04-26T07:56:39.701Z,15.36
2023-04-26T07:59:06.938Z,15.69
2023-04-26T08:01:34.213Z,16.01
2023-04-26T08:04:03.764Z,16.15
2023-04-26T08:06:31.645Z,16.10
2023-04-26T08:08:58.542Z,15.89
2023-04-26T08:11:28.656Z,15.89
2023-04-26T08:13:55.608Z,16.20
2023-04-26T08:16:41.159Z,15.96
2023-04-26T08:19:11.179Z,15.88
2023-04-26T08:21:41.149Z,16.12
2023-04-26T08:24:11.498Z,16.08
2023-04-26T08:26:54.307Z,16.09
2023-04-26T08:29:21.618Z,16.07
2023-04-26T08:31:53.014Z,16.25
2023-04-26T08:34:23.872Z,16.16
2023-04-26T08:36:57.009Z,16.38
2023-04-26T08:39:24.708Z,16.56
2023-04-26T08:42:05.384Z,16.72
2023-04-26T08:44:39.707Z,16.70
2023-04-26T08:47:44.359Z,16.64
2023-04-26T08:50:14.461Z,17.01
2023-04-26T08:52:45.478Z,17.07
2023-04-26T08:55:24.601Z,17.03
2023-04-26T08:57:55.568Z,17.21
2023-04-26T09:00:23.539Z,17.14
2023-04-26T09:02:56.500Z,17.20
2023-04-26T09:05:27.507Z,17.22
2023-04-26T09:08:01.081Z,17.27
2023-04-26T09:10:29.865Z,17.16
2023-04-26T09:13:00.299Z,17.12
2023-04-26T09:15:30.548Z,17.09
2023-04-26T09:18:19.264Z,17.26
2023-04-26T09:21:03.010Z,17.33
2023-04-26T09:23:32.158Z,17.33
2023-04-26T09:26:20.514Z,17.42
2023-04-26T09:28:51.306Z,17.46
2023-04-26T09:31:39.787Z,17.40
2023-04-26T09:34:08.805Z,17.40
2023-04-26T09:36:57.351Z,17.54
2023-04-26T09:39:34.394Z,17.60
2023-04-26T09:42:07.751Z,17.59
2023-04-26T09:44:38.063Z,17.60
2023-04-26T09:47:11.036Z,17.72
2023-04-26T09:49:59.021Z,17.88
2023-04-26T09:52:36.256Z,18.17
2023-04-26T09:55:09.205Z,18.28
2023-04-26T09:57:44.925Z,18.36
2023-04-26T10:00:18.773Z,18.28
2023-04-26T10:02:47.105Z,18.53
2023-04-26T10:05:14.375Z,18.71
2023-04-26T10:07:41.855Z,18.59
2023-04-26T10:10:10.045Z,18.53
2023-04-26T10:12:37.931Z,18.54
2023-04-26T10:15:08.493Z,18.45
2023-04-26T10:17:35.321Z,18.43
2023-04-26T10:20:06.306Z,18.46
2023-04-26T10:22:38.507Z,18.57
2023-04-26T10:25:09.706Z,18.52
2023-04-26T10:27:45.767Z,18.78
2023-04-26T10:30:17.958Z,18.86
2023-04-26T10:32:51.155Z,18.88
2023-04-26T10:35:22.960Z,19.04
2023-04-26T10:38:12.674Z,18.86
2023-04-26T10:40:55.382Z,18.76
2023-04-26T10:43:38.198Z,18.72
2023-04-26T10:46:43.127Z,18.91
2023-04-26T10:49:29.402Z,18.94
2023-04-26T10:52:33.636Z,18.75
2023-04-26T10:55:09.205Z,18.91
2023-04-26T10:58:14.153Z,19.26
2023-04-26T11:00:41.321Z,19.87
2023-04-26T11:03:14.901Z,20.14
2023-04-26T11:05:52.186Z,19.93
2023-04-26T11:08:21.956Z,19.67
2023-04-26T11:10:57.773Z,19.65
2023-04-26T11:13:24.655Z,19.69
2023-04-26T11:15:59.879Z,19.70
2023-04-26T11:18:28.140Z,20.17
2023-04-26T11:21:05.396Z,20.43
2023-04-26T11:23:37.171Z,20.56
2023-04-26T11:26:15.050Z,20.30
2023-04-26T11:28:56.987Z,19.97
2023-04-26T11:31:26.004Z,20.05
2023-04-26T11:33:56.209Z,19.91
2023-04-26T11:36:32.185Z,19.85
2023-04-26T11:39:13.089Z,19.68
2023-04-26T11:41:42.225Z,20.61
2023-04-26T11:44:13.061Z,21.10
2023-04-26T11:46:44.406Z,21.24
2023-04-26T11:49:17.145Z,20.81
2023-04-26T11:51:48.316Z,20.63
2023-04-26T11:54:34.240Z,21.01
2023-04-26T11:57:17.447Z,21.36
2023-04-26T11:59:45.140Z,21.74
2023-04-26T12:02:21.034Z,21.18
2023-04-26T12:05:00.428Z,20.83
2023-04-26T12:07:27.580Z,20.55
2023-04-26T12:10:06.930Z,20.46
2023-04-26T12:12:35.741Z,21.84
2023-04-26T12:15:10.672Z,22.19
2023-04-26T12:17:39.521Z,21.74
2023-04-26T12:20:13.752Z,21.17
2023-04-26T12:23:08.487Z,20.86
2023-04-26T12:26:04.695Z,20.77
2023-04-26T12:28:31.637Z,20.53
2023-04-26T12:31:09.440Z,20.42
2023-04-26T12:33:36.776Z,20.68
2023-04-26T12:36:14.340Z,21.13
2023-04-26T12:38:41.366Z,21.01
2023-04-26T12:41:08.442Z,21.25
2023-04-26T12:43:47.154Z,21.60
2023-04-26T12:46:14.318Z,21.48
2023-04-26T12:48:41.501Z,21.21
2023-04-26T12:51:12.118Z,20.68
2023-04-26T12:54:07.011Z,20.67
2023-04-26T12:56:34.504Z,21.00
2023-04-26T12:59:03.358Z,20.78
2023-04-26T13:01:33.714Z,20.61
2023-04-26T13:04:01.487Z,20.88
2023-04-26T13:06:29.031Z,20.85
2023-04-26T13:09:00.521Z,20.75
2023-04-26T13:11:33.607Z,20.60
2023-04-26T13:14:07.520Z,20.17
2023-04-26T13:16:51.160Z,19.77
2023-04-26T13:19:19.483Z,19.85
2023-04-26T13:21:46.256Z,20.20
2023-04-26T13:24:24.960Z,20.39
2023-04-26T13:26:58.268Z,20.27
2023-04-26T13:29:32.395Z,20.16
2023-04-26T13:32:12.495Z,20.35
2023-04-26T13:37:30.269Z,20.69
2023-04-26T13:39:57.058Z,20.71
2023-04-26T13:42:59.107Z,20.42
2023-04-26T13:45:25.931Z,20.67
2023-04-26T13:47:59.033Z,20.78
2023-04-26T13:50:35.567Z,20.35
2023-04-26T13:53:08.444Z,20.04
2023-04-26T13:55:42.118Z,19.87
2023-04-26T13:58:12.299Z,19.69
2023-04-26T14:00:39.247Z,19.80
2023-04-26T14:03:08.727Z,19.71
2023-04-26T14:05:36.174Z,19.68
2023-04-26T14:08:02.964Z,19.98
2023-04-26T14:10:51.664Z,19.80
2023-04-26T14:13:21.839Z,19.77
2023-04-26T14:16:01.516Z,19.67
2023-04-26T14:18:34.144Z,19.70
2023-04-26T14:21:03.919Z,19.67
2023-04-26T14:23:34.831Z,19.58
2023-04-26T14:26:13.572Z,19.66
2023-04-26T14:29:07.488Z,19.61
2023-04-26T14:31:50.644Z,19.52
2023-04-26T14:34:43.244Z,19.78
2023-04-26T14:37:23.095Z,19.73
2023-04-26T14:39:53.888Z,19.48
2023-04-26T14:42:27.443Z,19.31
2023-04-26T14:44:54.351Z,19.69
2023-04-26T14:47:21.365Z,19.79
2023-04-26T14:49:55.808Z,19.93
2023-04-26T14:52:50.393Z,20.24
2023-04-26T14:55:24.301Z,21.04
2023-04-26T14:58:04.431Z,21.03
2023-04-26T15:00:37.815Z,20.56
2023-04-26T15:03:10.285Z,20.19
2023-04-26T15:08:36.205Z,20.37
2023-04-26T15:11:06.956Z,20.56
2023-04-26T15:13:42.918Z,20.63
2023-04-26T15:16:21.359Z,20.70
2023-04-26T15:18:53.326Z,20.97
2023-04-26T15:21:52.207Z,20.75
2023-04-26T15:24:25.327Z,20.51
2023-04-26T15:27:20.095Z,20.36
2023-04-26T15:30:01.492Z,20.53
2023-04-26T15:32:36.399Z,20.19
2023-04-26T15:35:09.974Z,19.86
2023-04-26T15:37:57.599Z,19.79
2023-04-26T15:40:24.974Z,19.83
2023-04-26T15:43:04.965Z,20.31
2023-04-26T15:45:34.876Z,20.30
2023-04-26T15:48:22.259Z,19.94
2023-04-26T15:50:52.647Z,20.03
2023-04-26T15:53:57.804Z,19.94
2023-04-26T15:56:36.955Z,19.92
2023-04-26T15:59:17.131Z,19.78
2023-04-26T16:02:00.030Z,19.68
2023-04-26T16:04:27.265Z,19.37
2023-04-26T16:07:02.461Z,19.42
2023-04-26T16:09:32.369Z,19.36
2023-04-26T16:12:11.330Z,19.54
2023-04-26T16:14:38.096Z,19.64
2023-04-26T16:17:05.398Z,19.56
2023-04-26T16:19:32.607Z,19.61
2023-04-26T16:22:00.639Z,19.59
2023-04-26T16:24:27.497Z,19.56
2023-04-26T16:26:54.352Z,19.41
2023-04-26T16:29:21.121Z,19.42
2023-04-26T16:31:56.568Z,19.17
2023-04-26T16:39:59.702Z,19.89
2023-04-26T16:42:30.094Z,19.95
2023-04-26T16:44:57.434Z,20.07
2023-04-26T16:47:25.800Z,19.94
2023-04-26T16:49:53.067Z,20.03
2023-04-26T16:52:21.342Z,19.56
2023-04-26T16:54:48.209Z,19.22
2023-04-26T16:57:20.027Z,19.21
2023-04-26T16:59:49.876Z,19.20
2023-04-26T17:02:22.314Z,19.09
2023-04-26T17:04:51.958Z,18.94
2023-04-26T17:07:24.150Z,18.89
2023-04-26T17:09:55.979Z,18.82
2023-04-26T17:12:31.356Z,18.82
2023-04-26T17:14:58.731Z,18.84
2023-04-26T17:17:25.900Z,18.83
2023-04-26T17:19:54.124Z,18.80
2023-04-26T17:22:23.175Z,18.74
2023-04-26T17:24:51.136Z,18.70
2023-04-26T17:27:18.385Z,18.61
2023-04-26T17:29:53.623Z,18.54
2023-04-26T17:32:21.735Z,18.54
2023-04-26T17:34:57.719Z,18.62
2023-04-26T17:37:24.674Z,18.60
2023-04-26T17:39:55.050Z,18.55
2023-04-26T17:42:22.450Z,18.56
2023-04-26T17:44:49.289Z,18.55
2023-04-26T17:47:19.616Z,18.58
2023-04-26T17:49:46.494Z,18.51
2023-04-26T17:52:16.716Z,18.57
2023-04-26T17:54:44.115Z,18.50
2023-04-26T17:57:16.294Z,18.52
2023-04-26T17:59:43.284Z,18.52
2023-04-26T18:02:10.390Z,18.50
2023-04-26T18:04:38.043Z,18.47
2023-04-26T18:07:05.089Z,18.59
2023-04-26T18:09:32.158Z,18.45
2023-04-26T18:12:00.511Z,18.44
2023-04-26T18:14:28.167Z,18.45
2023-04-26T18:16:55.239Z,18.38
2023-04-26T18:19:22.433Z,18.37
2023-04-26T18:22:02.528Z,18.56
2023-04-26T18:24:33.288Z,18.42
2023-04-26T18:27:01.473Z,18.50
2023-04-26T18:29:36.670Z,18.67
2023-04-26T18:32:06.320Z,18.43
2023-04-26T18:34:35.734Z,18.56
2023-04-26T18:37:05.919Z,18.50
2023-04-26T18:39:38.330Z,18.37
2023-04-26T18:42:05.416Z,18.39
2023-04-26T18:44:32.691Z,18.21
2023-04-26T18:46:59.673Z,18.29
2023-04-26T18:49:29.418Z,18.22
2023-04-26T18:51:57.971Z,18.17
2023-04-26T18:54:24.941Z,18.14
2023-04-26T18:56:52.246Z,18.19
2023-04-26T18:59:19.621Z,18.22
2023-04-26T19:01:49.772Z,18.15
2023-04-26T19:04:18.533Z,18.05
2023-04-26T19:06:45.728Z,18.13
2023-04-26T19:09:13.678Z,18.35
2023-04-26T19:11:41.263Z,18.28
2023-04-26T19:14:09.275Z,18.19
2023-04-26T19:16:40.445Z,18.19
2023-04-26T19:19:10.381Z,18.15
2023-04-26T19:21:37.147Z,18.22
2023-04-26T19:24:16.897Z,18.05
2023-04-26T19:26:50.943Z,17.96
2023-04-26T19:29:21.998Z,17.83
2023-04-26T19:31:56.868Z,17.74
2023-04-26T19:34:39.754Z,17.83
2023-04-26T19:37:09.292Z,17.76
2023-04-26T19:39:38.352Z,17.91
2023-04-26T19:42:05.440Z,17.86
2023-04-26T19:44:33.859Z,18.24
2023-04-26T19:47:00.950Z,18.25
2023-04-26T19:49:36.028Z,18.29
2023-04-26T19:52:03.923Z,18.35
2023-04-26T19:54:34.916Z,18.36
2023-04-26T19:57:06.916Z,18.21
2023-04-26T19:59:36.648Z,18.05
2023-04-26T20:02:09.589Z,17.87
2023-04-26T20:04:39.623Z,18.00
2023-04-26T20:07:06.879Z,17.95
2023-04-26T20:09:46.622Z,17.75
2023-04-26T20:12:17.150Z,17.76
2023-04-26T20:14:45.859Z,18.08
2023-04-26T20:17:18.472Z,18.23
2023-04-26T20:19:48.489Z,18.30
2023-04-26T20:22:15.607Z,17.88
2023-04-26T20:24:43.461Z,17.73
2023-04-26T20:27:14.455Z,17.79
2023-04-26T20:29:41.611Z,18.08
2023-04-26T20:32:09.489Z,18.08
2023-04-26T20:34:40.407Z,18.09
2023-04-26T20:37:08.094Z,18.12
2023-04-26T20:39:35.247Z,18.12
2023-04-26T20:42:05.352Z,18.30
2023-04-26T20:44:35.211Z,17.98
2023-04-26T20:47:02.690Z,17.78
2023-04-26T20:49:33.238Z,17.80
2023-04-26T20:52:01.414Z,17.80
2023-04-26T20:54:31.539Z,17.85
2023-04-26T20:57:08.053Z,17.52
2023-04-26T20:59:38.173Z,17.26
2023-04-26T21:02:05.423Z,17.47
2023-04-26T21:04:49.307Z,17.83
2023-04-26T21:07:17.235Z,17.88
2023-04-26T21:09:44.315Z,17.92
2023-04-26T21:12:11.434Z,17.89
2023-04-26T21:14:40.237Z,17.40
2023-04-26T21:17:07.399Z,17.07
2023-04-26T21:19:34.357Z,16.87
2023-04-26T21:22:03.680Z,16.70
2023-04-26T21:24:30.966Z,16.61
2023-04-26T21:27:01.365Z,16.56
2023-04-26T21:29:39.292Z,16.42
2023-04-26T21:32:09.889Z,16.28
2023-04-26T21:34:41.488Z,16.34
2023-04-26T21:37:09.136Z,16.22
2023-04-26T21:39:36.324Z,16.24
2023-04-26T21:42:04.174Z,16.17
2023-04-26T21:44:37.673Z,16.45
2023-04-26T21:47:07.774Z,17.21
2023-04-26T21:49:39.555Z,17.27
2023-04-26T21:52:06.566Z,17.08
2023-04-26T21:54:36.137Z,16.66
2023-04-26T21:57:07.168Z,16.15
2023-04-26T21:59:34.395Z,15.84
2023-04-26T22:02:01.768Z,15.70
2023-04-26T22:04:29.570Z,15.49
2023-04-26T22:06:57.234Z,15.51
2023-04-26T22:09:24.153Z,15.49
2023-04-26T22:11:56.220Z,15.60
2023-04-26T22:14:23.287Z,15.58
2023-04-26T22:16:55.774Z,15.46
2023-04-26T22:19:22.873Z,15.36
2023-04-26T22:21:57.194Z,15.35
2023-04-26T22:24:27.192Z,15.67
2023-04-26T22:26:54.201Z,15.75
2023-04-26T22:29:21.476Z,15.72
2023-04-26T22:31:48.641Z,15.59
2023-04-26T22:34:15.975Z,15.60
2023-04-26T22:36:49.069Z,15.52
2023-04-26T22:39:17.773Z,15.81
2023-04-26T22:41:45.354Z,15.95
2023-04-26T22:44:15.808Z,15.72
2023-04-26T22:46:43.456Z,15.70
2023-04-26T22:49:17.813Z,16.49
2023-04-26T22:51:57.409Z,16.49
2023-04-26T22:54:40.167Z,16.71
2023-04-26T22:57:08.453Z,16.65
2023-04-26T22:59:35.372Z,15.99
2023-04-26T23:02:02.375Z,16.35
2023-04-26T23:04:29.292Z,16.52
2023-04-26T23:07:02.350Z,16.64
2023-04-26T23:09:30.540Z,16.48
2023-04-26T23:12:03.772Z,16.18
2023-04-26T23:14:30.797Z,16.07
2023-04-26T23:17:01.881Z,16.30
2023-04-26T23:19:28.851Z,15.98
2023-04-26T23:21:55.915Z,15.94
2023-04-26T23:24:22.889Z,16.18
2023-04-26T23:26:52.569Z,16.26
2023-04-26T23:29:20.539Z,16.04
2023-04-26T23:31:47.659Z,15.16
2023-04-26T23:34:14.663Z,14.96
2023-04-26T23:36:41.934Z,14.84
2023-04-26T23:39:22.548Z,14.99
2023-04-26T23:41:49.816Z,15.80
2023-04-26T23:44:17.105Z,15.85
2023-04-26T23:46:44.259Z,15.74
2023-04-26T23:49:11.689Z,15.78
2023-04-26T23:51:40.952Z,16.25
2023-04-26T23:54:07.997Z,16.29
2023-04-26T23:56:34.878Z,16.79
2023-04-26T23:59:01.808Z,16.43
